Time;durP1;ratioP1;P1;durP2;ratioP2;P2;SDS_P1;SDS_P2;PMS_P1;PMS_P2;Temp;Humidity;BMP_temperature;BMP_pressure;BME280_temperature;BME280_humidity;BME280_pressure;Samples;Min_cycle;Max_cycle;Signal;HPM_P1;HPM_P2
2021/12/31 00:01:50;;;;;;;18.73;12.70;;;;;;;6.95;95.46;95479.78;5114110;28;20503;-78
2021/12/31 00:04:17;;;;;;;17.00;12.57;;;;;;;6.96;95.72;95489.31;5113597;28;20434;-79
2021/12/31 00:06:45;;;;;;;14.97;11.50;;;;;;;6.90;95.57;95492.25;5112994;28;20445;-79
2021/12/31 00:09:11;;;;;;;16.50;11.20;;;;;;;6.92;95.54;95485.16;5113568;28;20449;-79
2021/12/31 00:11:38;;;;;;;17.47;12.47;;;;;;;6.90;95.84;95486.19;5113751;28;20447;-78
2021/12/31 00:14:07;;;;;;;20.33;13.60;;;;;;;6.86;95.21;95487.31;5113871;28;20439;-79
2021/12/31 00:16:34;;;;;;;15.70;12.60;;;;;;;6.95;95.30;95492.00;5113080;28;20452;-78
2021/12/31 00:19:01;;;;;;;19.73;13.83;;;;;;;6.92;95.50;95495.59;5113852;28;20449;-78
2021/12/31 00:21:32;;;;;;;22.00;14.83;;;;;;;6.88;95.69;95501.94;5077821;28;20987;-78
2021/12/31 00:23:59;;;;;;;22.80;15.20;;;;;;;6.90;95.30;95509.69;5113932;28;20448;-78
2021/12/31 00:26:26;;;;;;;28.77;15.87;;;;;;;6.81;95.78;95513.69;5113496;28;20457;-79
2021/12/31 00:28:53;;;;;;;25.20;15.73;;;;;;;6.82;96.15;95503.16;5114125;28;20448;-78
2021/12/31 00:31:21;;;;;;;19.50;13.90;;;;;;;6.76;96.01;95490.50;5113951;28;20437;-78
2021/12/31 00:33:49;;;;;;;23.30;14.50;;;;;;;6.78;96.02;95487.78;5113718;28;20448;-78
2021/12/31 00:36:16;;;;;;;22.27;13.87;;;;;;;6.69;96.75;95488.34;5113956;28;20964;-78
2021/12/31 00:38:43;;;;;;;19.13;13.30;;;;;;;6.74;96.52;95497.56;5112895;28;20935;-78
2021/12/31 00:41:10;;;;;;;18.10;12.67;;;;;;;6.78;96.32;95501.66;5060224;28;20481;-79
2021/12/31 00:43:37;;;;;;;21.13;12.00;;;;;;;6.76;96.26;95500.94;5113120;28;20811;-79
2021/12/31 00:46:04;;;;;;;21.43;15.80;;;;;;;6.75;97.01;95503.63;5113807;28;20445;-78
2021/12/31 00:48:32;;;;;;;21.70;14.73;;;;;;;6.73;96.49;95511.53;5113530;28;20961;-78
2021/12/31 00:50:59;;;;;;;19.33;12.60;;;;;;;6.69;96.82;95509.22;5113417;28;20436;-79
2021/12/31 00:53:26;;;;;;;26.70;16.40;;;;;;;6.56;96.74;95501.28;5112835;28;20451;-79
2021/12/31 00:55:53;;;;;;;24.27;14.90;;;;;;;6.49;97.58;95486.94;5076930;28;20461;-78
2021/12/31 00:58:20;;;;;;;20.50;15.30;;;;;;;6.45;97.39;95490.66;5113997;28;20455;-78
2021/12/31 01:00:47;;;;;;;20.93;13.13;;;;;;;6.40;97.49;95477.06;5115567;28;20576;-79
2021/12/31 01:03:15;;;;;;;20.50;13.80;;;;;;;6.33;98.02;95470.50;5065226;28;20444;-78
2021/12/31 01:05:44;;;;;;;21.30;12.90;;;;;;;6.29;98.58;95469.00;5117612;28;20531;-78
2021/12/31 01:08:11;;;;;;;21.73;13.17;;;;;;;6.25;98.94;95468.34;5117575;28;20964;-77
2021/12/31 01:10:38;;;;;;;20.43;12.33;;;;;;;6.32;98.34;95479.25;5117650;28;20791;-77
2021/12/31 01:13:10;;;;;;;23.30;15.03;;;;;;;6.34;98.38;95488.66;5117713;28;20436;-77
2021/12/31 01:15:40;;;;;;;21.80;14.00;;;;;;;6.36;98.85;95479.00;5117600;28;20484;-78
2021/12/31 01:19:43;;;;;;;19.77;13.37;;;;;;;6.31;97.64;95474.97;5117502;28;20469;-78
2021/12/31 01:21:11;;;;;;;15.73;10.50;;;;;;;6.32;97.43;95479.25;5116978;28;20472;-78
2021/12/31 01:23:38;;;;;;;18.20;13.23;;;;;;;6.35;97.37;95489.50;5117260;28;20437;-79
2021/12/31 01:26:05;;;;;;;33.03;16.90;;;;;;;6.32;98.04;95492.28;5116657;28;20515;-78
2021/12/31 01:28:31;;;;;;;19.10;13.87;;;;;;;6.30;97.42;95481.94;5081172;28;20438;-78
2021/12/31 01:30:58;;;;;;;20.97;14.10;;;;;;;6.35;97.71;95492.94;5116923;28;20939;-78
2021/12/31 01:33:25;;;;;;;19.67;13.13;;;;;;;6.29;97.23;95505.50;5117031;28;20447;-78
2021/12/31 01:35:52;;;;;;;17.87;11.10;;;;;;;6.29;97.11;95508.09;5116155;28;20461;-78
2021/12/31 01:38:20;;;;;;;21.27;12.73;;;;;;;6.27;97.21;95505.59;5116694;28;20445;-78
2021/12/31 01:40:48;;;;;;;21.63;12.60;;;;;;;6.33;97.46;95505.22;5116840;28;20975;-79
2021/12/31 01:43:16;;;;;;;15.90;9.60;;;;;;;6.28;97.63;95509.88;5064639;28;20474;-79
2021/12/31 01:45:47;;;;;;;18.47;11.10;;;;;;;6.23;96.83;95504.09;5115672;28;20803;-79
2021/12/31 01:48:25;;;;;;;13.53;9.50;;;;;;;6.21;96.72;95498.13;5064850;28;20794;-78
2021/12/31 01:50:52;;;;;;;15.40;10.57;;;;;;;6.21;97.15;95501.56;5079537;28;20469;-78
2021/12/31 01:53:23;;;;;;;18.30;10.77;;;;;;;6.18;96.50;95508.72;5116029;28;20481;-79
2021/12/31 01:55:51;;;;;;;16.43;10.77;;;;;;;6.16;96.47;95519.25;5116037;28;20475;-79
2021/12/31 01:58:22;;;;;;;13.20;9.60;;;;;;;6.12;96.42;95525.56;5115723;28;20845;-79
2021/12/31 02:00:49;;;;;;;13.10;8.90;;;;;;;6.01;97.49;95529.69;5115926;28;20452;-79
2021/12/31 02:03:19;;;;;;;17.80;10.50;;;;;;;6.07;97.08;95527.59;5115903;28;20471;-79
2021/12/31 02:05:46;;;;;;;16.83;10.80;;;;;;;6.01;97.87;95540.94;5115582;28;20450;-79
2021/12/31 02:08:13;;;;;;;12.93;9.87;;;;;;;6.04;97.86;95532.13;5116253;28;20455;-78
2021/12/31 02:10:42;;;;;;;13.17;10.40;;;;;;;6.10;97.97;95523.97;5115964;28;20441;-78
2021/12/31 02:13:09;;;;;;;15.57;10.27;;;;;;;6.16;97.31;95531.44;5115992;28;20448;-79
2021/12/31 02:15:36;;;;;;;15.90;10.10;;;;;;;6.22;97.32;95528.47;5116298;28;20451;-78
2021/12/31 02:18:08;;;;;;;14.07;10.67;;;;;;;6.24;97.45;95530.97;5115906;28;20483;-79
2021/12/31 02:20:40;;;;;;;12.60;10.27;;;;;;;6.29;97.32;95527.19;5115791;28;20963;-78
2021/12/31 02:23:08;;;;;;;13.90;10.57;;;;;;;6.35;96.88;95532.03;5115565;28;20444;-78
2021/12/31 02:25:37;;;;;;;13.57;10.03;;;;;;;6.45;96.43;95535.81;5115417;28;20455;-79
2021/12/31 02:28:05;;;;;;;16.00;11.87;;;;;;;6.39;95.81;95532.72;5114864;28;20788;-79
2021/12/31 02:30:32;;;;;;;15.00;10.30;;;;;;;6.32;95.92;95539.19;5114584;28;20450;-79
2021/12/31 02:32:59;;;;;;;16.50;11.17;;;;;;;6.31;95.63;95533.13;5115064;28;20445;-78
2021/12/31 02:35:26;;;;;;;19.13;11.77;;;;;;;6.30;96.16;95528.03;5114785;28;20931;-79
2021/12/31 02:37:54;;;;;;;18.40;11.10;;;;;;;6.29;95.55;95539.38;5062029;28;20441;-79
2021/12/31 02:40:23;;;;;;;11.50;9.40;;;;;;;6.34;96.41;95542.53;5114798;28;20939;-79
2021/12/31 02:42:50;;;;;;;13.17;9.73;;;;;;;6.27;95.28;95533.41;5062854;28;20550;-79
2021/12/31 02:45:17;;;;;;;18.13;12.00;;;;;;;6.26;96.16;95527.34;5114558;28;20793;-79
2021/12/31 02:47:45;;;;;;;17.83;10.97;;;;;;;6.20;96.31;95533.78;5114662;28;20452;-78
2021/12/31 02:50:14;;;;;;;13.30;10.47;;;;;;;6.21;96.88;95535.44;5114472;28;20501;-78
2021/12/31 02:52:42;;;;;;;15.87;9.73;;;;;;;6.29;96.63;95539.38;5114534;28;20817;-78
2021/12/31 02:55:11;;;;;;;16.37;10.10;;;;;;;6.28;96.62;95561.16;5114561;28;20966;-79
2021/12/31 02:57:40;;;;;;;19.87;11.57;;;;;;;6.28;96.42;95555.94;5114292;28;20511;-78
2021/12/31 03:00:08;;;;;;;17.83;10.87;;;;;;;6.23;96.21;95553.59;5114881;28;20447;-78
2021/12/31 03:02:38;;;;;;;16.40;11.70;;;;;;;6.27;95.43;95565.53;5114926;28;20484;-78
2021/12/31 03:05:06;;;;;;;15.77;10.90;;;;;;;6.26;95.15;95563.84;5061382;28;20795;-78
2021/12/31 03:07:35;;;;;;;13.30;10.40;;;;;;;6.23;95.80;95574.44;5114287;28;20452;-79
2021/12/31 03:10:03;;;;;;;14.97;10.87;;;;;;;6.25;95.20;95570.00;5114372;28;20448;-79
2021/12/31 03:12:31;;;;;;;14.20;10.27;;;;;;;6.19;95.15;95568.56;5077884;28;20437;-79
2021/12/31 03:14:59;;;;;;;12.23;9.37;;;;;;;6.17;94.55;95570.44;5113769;28;20443;-78
2021/12/31 03:17:27;;;;;;;16.73;10.73;;;;;;;6.17;94.36;95578.25;5114304;28;20450;-78
2021/12/31 03:20:07;;;;;;;15.30;10.10;;;;;;;6.15;95.26;95581.88;5113855;28;20813;-79
2021/12/31 03:22:34;;;;;;;14.03;10.30;;;;;;;6.14;94.99;95590.63;5060756;28;20500;-79
2021/12/31 03:25:01;;;;;;;14.73;9.90;;;;;;;6.19;95.21;95589.41;5114939;28;20460;-79
2021/12/31 03:27:28;;;;;;;15.70;10.77;;;;;;;6.23;94.47;95595.28;5113995;28;20445;-79
2021/12/31 03:29:56;;;;;;;16.90;9.93;;;;;;;6.22;93.90;95586.63;5114462;28;20446;-78
2021/12/31 03:32:23;;;;;;;18.10;11.70;;;;;;;6.19;93.58;95589.41;5113915;28;20461;-79
2021/12/31 03:34:50;;;;;;;16.40;9.50;;;;;;;6.28;94.06;95584.59;5113772;28;20444;-79
2021/12/31 03:37:17;;;;;;;21.67;13.77;;;;;;;6.29;94.14;95587.13;5113969;28;20788;-78
2021/12/31 03:39:44;;;;;;;16.67;11.30;;;;;;;6.31;93.82;95595.69;5114323;28;20429;-78
2021/12/31 03:42:14;;;;;;;22.07;11.47;;;;;;;6.25;93.51;95603.03;5113587;28;20561;-78
2021/12/31 03:44:41;;;;;;;14.70;9.70;;;;;;;6.19;92.79;95593.78;5113762;28;20535;-78
2021/12/31 03:47:10;;;;;;;15.53;10.17;;;;;;;6.17;92.33;95596.50;5113400;28;20442;-78
2021/12/31 03:49:37;;;;;;;12.17;9.60;;;;;;;6.10;93.12;95595.16;5113487;28;20443;-79
2021/12/31 03:52:04;;;;;;;14.20;10.20;;;;;;;6.14;92.39;95612.28;5113430;28;20942;-78
2021/12/31 03:54:31;;;;;;;21.07;10.03;;;;;;;6.15;92.81;95606.16;5078296;28;20455;-78
2021/12/31 03:56:58;;;;;;;13.10;9.47;;;;;;;6.19;93.24;95612.88;5114491;28;20460;-78
2021/12/31 03:59:25;;;;;;;13.47;9.17;;;;;;;6.27;92.11;95612.44;5114002;28;20456;-79
2021/12/31 04:01:52;;;;;;;13.83;8.73;;;;;;;6.32;91.95;95610.41;5114570;28;20516;-79
2021/12/31 04:04:20;;;;;;;11.40;8.70;;;;;;;6.31;91.21;95620.91;5113669;28;20814;-80
2021/12/31 04:06:47;;;;;;;11.13;8.97;;;;;;;6.30;90.60;95619.25;5113695;28;20452;-79
2021/12/31 04:09:14;;;;;;;10.50;8.50;;;;;;;6.28;89.79;95615.88;5113759;28;20435;-79
2021/12/31 04:11:40;;;;;;;15.20;9.37;;;;;;;6.33;89.34;95613.84;5078414;28;20449;-78
2021/12/31 04:14:07;;;;;;;12.57;10.30;;;;;;;6.39;89.73;95608.31;5114549;28;20453;-78
2021/12/31 04:16:35;;;;;;;13.60;9.53;;;;;;;6.49;88.92;95612.06;5113878;28;20440;-78
2021/12/31 04:19:02;;;;;;;13.87;10.37;;;;;;;6.55;89.16;95611.72;5077633;28;20453;-78
2021/12/31 04:21:31;;;;;;;16.70;9.60;;;;;;;6.50;88.80;95611.13;5113110;28;20817;-78
2021/12/31 04:24:07;;;;;;;10.37;8.20;;;;;;;6.55;88.87;95609.09;5113631;28;20449;-78
2021/12/31 04:26:34;;;;;;;13.03;9.77;;;;;;;6.59;88.28;95610.59;5113964;28;20448;-78
2021/12/31 04:29:01;;;;;;;10.80;9.33;;;;;;;6.61;87.78;95613.13;5114167;28;20451;-79
2021/12/31 04:31:28;;;;;;;12.53;10.10;;;;;;;6.63;88.13;95611.25;5113204;28;20548;-78
2021/12/31 04:33:54;;;;;;;11.47;9.80;;;;;;;6.62;87.66;95613.03;5115136;28;20527;-78
2021/12/31 04:36:21;;;;;;;15.97;10.30;;;;;;;6.59;87.58;95608.00;5117987;28;20459;-78
2021/12/31 04:38:50;;;;;;;13.90;9.53;;;;;;;6.61;87.65;95607.91;5118116;28;20444;-78
2021/12/31 04:41:17;;;;;;;15.70;10.70;;;;;;;6.64;87.32;95605.09;5118183;28;20437;-78
2021/12/31 04:43:44;;;;;;;14.10;10.50;;;;;;;6.62;87.36;95613.03;5117664;28;20476;-79
2021/12/31 04:46:10;;;;;;;14.00;10.07;;;;;;;6.62;87.10;95615.63;5117621;28;20450;-78
2021/12/31 04:48:37;;;;;;;14.37;9.67;;;;;;;6.63;86.75;95619.06;5065569;28;20453;-78
2021/12/31 04:51:04;;;;;;;12.40;9.67;;;;;;;6.63;85.91;95624.28;5118211;28;20447;-79
2021/12/31 04:53:31;;;;;;;13.87;10.50;;;;;;;6.63;86.65;95630.34;5117179;28;20447;-78
2021/12/31 04:55:59;;;;;;;14.93;10.70;;;;;;;6.63;86.57;95625.13;5116442;28;20481;-78
2021/12/31 04:58:26;;;;;;;16.67;11.00;;;;;;;6.62;85.50;95622.63;5117126;28;20455;-78
2021/12/31 05:00:53;;;;;;;19.03;11.20;;;;;;;6.58;85.31;95621.97;5116745;28;20442;-78
2021/12/31 05:03:21;;;;;;;14.37;11.40;;;;;;;6.53;85.56;95613.56;5117268;28;20979;-78
2021/12/31 05:05:48;;;;;;;15.83;11.20;;;;;;;6.52;86.59;95617.09;5117703;28;20438;-78
2021/12/31 05:08:14;;;;;;;13.50;10.13;;;;;;;6.48;86.70;95613.84;5117031;28;20451;-78
2021/12/31 05:10:41;;;;;;;13.07;9.60;;;;;;;6.42;86.78;95616.78;5064416;28;20436;-78
2021/12/31 05:13:14;;;;;;;11.73;10.50;;;;;;;6.41;86.15;95624.69;5116744;28;20461;-78
2021/12/31 05:15:45;;;;;;;16.60;11.23;;;;;;;6.37;85.93;95633.63;5116632;28;20439;-78
2021/12/31 05:18:12;;;;;;;21.80;11.80;;;;;;;6.37;85.44;95633.63;5116500;28;20886;-79
2021/12/31 05:20:39;;;;;;;19.13;9.83;;;;;;;6.34;86.10;95628.56;5064061;28;20444;-78
2021/12/31 05:23:09;;;;;;;13.93;10.70;;;;;;;6.31;85.28;95633.94;5116071;28;20483;-79
2021/12/31 05:25:36;;;;;;;16.03;11.90;;;;;;;6.24;85.83;95630.84;5116836;28;20513;-78
2021/12/31 05:28:03;;;;;;;17.97;10.43;;;;;;;6.21;85.75;95629.25;5079964;28;20429;-78
2021/12/31 05:30:31;;;;;;;15.23;10.17;;;;;;;6.16;86.22;95626.06;5080510;28;20928;-79
2021/12/31 05:32:58;;;;;;;17.77;9.40;;;;;;;6.10;85.38;95636.84;5063905;28;20432;-79
2021/12/31 05:35:25;;;;;;;16.67;10.10;;;;;;;6.06;86.33;95630.09;5116046;28;20450;-78
2021/12/31 05:37:52;;;;;;;20.63;11.20;;;;;;;5.92;87.39;95626.59;5115817;28;20444;-78
2021/12/31 05:40:19;;;;;;;22.87;16.90;;;;;;;5.92;88.03;95627.41;5116573;28;20444;-78
2021/12/31 05:42:46;;;;;;;21.70;13.33;;;;;;;5.82;86.86;95627.06;5116702;28;20488;-79
2021/12/31 05:45:13;;;;;;;20.77;13.90;;;;;;;5.82;87.96;95632.28;5115379;28;20455;-78
2021/12/31 05:47:42;;;;;;;20.07;12.77;;;;;;;5.80;87.35;95638.50;5116457;28;20444;-78
2021/12/31 05:50:19;;;;;;;18.37;12.53;;;;;;;5.79;87.44;95642.00;5116206;28;20483;-78
2021/12/31 05:52:46;;;;;;;19.13;13.60;;;;;;;5.74;88.26;95628.38;5115920;28;20954;-78
2021/12/31 05:55:13;;;;;;;21.73;13.77;;;;;;;5.55;88.01;95629.38;5115815;28;20559;-78
2021/12/31 05:57:40;;;;;;;23.80;13.10;;;;;;;5.57;88.90;95639.72;5115959;28;20444;-78
2021/12/31 06:00:08;;;;;;;20.70;13.30;;;;;;;5.55;88.99;95639.81;5115556;28;20445;-78
2021/12/31 06:02:35;;;;;;;19.40;13.57;;;;;;;5.53;89.64;95649.44;5115474;28;20491;-78
2021/12/31 06:05:04;;;;;;;19.07;13.10;;;;;;;5.53;90.27;95646.84;5115499;28;20939;-78
2021/12/31 06:07:31;;;;;;;29.43;18.33;;;;;;;5.52;89.28;95658.19;5115258;28;21010;-78
2021/12/31 06:09:58;;;;;;;19.30;14.00;;;;;;;5.49;89.17;95663.56;5116160;28;20440;-78
2021/12/31 06:12:25;;;;;;;27.60;16.77;;;;;;;5.47;90.70;95660.16;5116165;28;20448;-78
2021/12/31 06:14:53;;;;;;;24.60;16.20;;;;;;;5.44;89.77;95654.28;5115948;28;20440;-78
2021/12/31 06:17:24;;;;;;;18.23;12.50;;;;;;;5.41;91.24;95651.84;5115943;28;20671;-78
2021/12/31 06:19:52;;;;;;;15.57;11.73;;;;;;;5.44;90.07;95660.31;5115822;28;20527;-77
2021/12/31 06:22:21;;;;;;;18.17;13.93;;;;;;;5.47;90.74;95657.56;5063956;28;20858;-78
2021/12/31 06:24:48;;;;;;;24.10;15.57;;;;;;;5.52;90.81;95660.78;5062354;28;20437;-78
2021/12/31 06:27:15;;;;;;;22.40;15.70;;;;;;;5.53;90.16;95652.06;5114806;28;20530;-78
2021/12/31 06:29:42;;;;;;;19.37;14.47;;;;;;;5.62;91.48;95648.13;5062616;28;20506;-77
2021/12/31 06:32:09;;;;;;;19.03;14.53;;;;;;;5.68;90.77;95668.59;5115148;28;20813;-78
2021/12/31 06:34:36;;;;;;;16.63;13.60;;;;;;;5.72;90.91;95674.50;5114653;28;20855;-78
2021/12/31 06:37:03;;;;;;;27.43;14.00;;;;;;;5.71;90.08;95673.66;5115628;28;20445;-78
2021/12/31 06:39:32;;;;;;;21.73;15.00;;;;;;;5.78;89.89;95666.34;5062623;28;20781;-78
2021/12/31 06:42:03;;;;;;;22.87;15.23;;;;;;;5.84;90.40;95681.66;5115007;28;20479;-78
2021/12/31 06:44:30;;;;;;;21.93;13.10;;;;;;;5.90;89.82;95677.00;5114944;28;20547;-78
2021/12/31 06:46:57;;;;;;;19.17;13.33;;;;;;;5.98;90.27;95684.38;5114444;28;20466;-78
2021/12/31 06:49:24;;;;;;;19.33;13.13;;;;;;;6.06;89.86;95687.41;5114620;28;20464;-78
2021/12/31 06:51:51;;;;;;;20.17;13.80;;;;;;;6.11;89.93;95682.81;5114535;28;20827;-78
2021/12/31 06:54:18;;;;;;;19.87;13.10;;;;;;;6.22;90.05;95688.28;5062055;28;20440;-78
2021/12/31 06:56:46;;;;;;;20.63;15.60;;;;;;;6.28;89.43;95683.63;5114757;28;20440;-78
2021/12/31 06:59:13;;;;;;;20.03;13.33;;;;;;;6.34;89.61;95678.91;5114162;28;20792;-78
2021/12/31 07:01:40;;;;;;;21.33;14.10;;;;;;;6.32;89.43;95682.53;5114253;28;20811;-78
2021/12/31 07:04:07;;;;;;;90.57;49.73;;;;;;;6.42;89.61;95688.94;5114141;28;20484;-79
2021/12/31 07:06:33;;;;;;;35.40;22.87;;;;;;;6.42;89.68;95679.34;5114592;28;20471;-78
2021/12/31 07:09:00;;;;;;;31.03;20.07;;;;;;;6.50;90.03;95681.53;5114099;28;20445;-78
2021/12/31 07:11:27;;;;;;;33.67;21.77;;;;;;;6.59;89.73;95674.94;5114170;28;20445;-77
2021/12/31 07:13:56;;;;;;;69.33;49.47;;;;;;;6.66;89.51;95682.34;5061700;28;20533;-78
2021/12/31 07:16:23;;;;;;;54.37;43.00;;;;;;;6.75;89.75;95694.03;5078826;28;20440;-78
2021/12/31 07:18:50;;;;;;;44.20;34.87;;;;;;;6.85;89.32;95692.56;5113984;28;20450;-78
2021/12/31 07:21:16;;;;;;;96.43;60.07;;;;;;;6.93;88.83;95694.72;5114795;28;20802;-78
2021/12/31 07:23:43;;;;;;;103.10;64.70;;;;;;;7.02;88.39;95699.44;5114736;28;20481;-79
2021/12/31 07:26:10;;;;;;;66.27;41.03;;;;;;;7.12;87.80;95696.19;5114062;28;20445;-79
2021/12/31 07:28:37;;;;;;;85.80;50.87;;;;;;;7.14;87.82;95683.88;5113986;28;20791;-79
2021/12/31 07:31:06;;;;;;;101.87;58.07;;;;;;;7.22;87.53;95693.03;5077862;28;20430;-79
2021/12/31 07:33:33;;;;;;;66.50;43.80;;;;;;;7.30;87.80;95678.63;5078154;28;20514;-78
2021/12/31 07:36:00;;;;;;;55.33;37.70;;;;;;;7.37;87.47;95679.09;5113714;28;20447;-78
2021/12/31 07:38:33;;;;;;;36.60;29.10;;;;;;;7.43;86.86;95690.00;5113751;28;20449;-78
2021/12/31 07:41:00;;;;;;;29.13;21.10;;;;;;;7.56;86.58;95678.84;5114293;28;20831;-78
2021/12/31 07:43:27;;;;;;;40.33;27.33;;;;;;;7.59;84.83;95691.69;5060572;28;20487;-78
2021/12/31 07:45:55;;;;;;;30.37;23.17;;;;;;;7.23;85.53;95692.09;5113658;28;20452;-79
2021/12/31 07:48:24;;;;;;;22.33;16.87;;;;;;;7.07;84.97;95684.34;5113889;28;20801;-79
2021/12/31 07:50:53;;;;;;;21.33;16.60;;;;;;;7.10;86.15;95686.78;5112978;28;20443;-78
2021/12/31 07:53:21;;;;;;;26.70;17.73;;;;;;;7.15;86.23;95692.56;5113213;28;20456;-79
2021/12/31 07:55:48;;;;;;;26.50;18.37;;;;;;;7.24;86.15;95684.22;5113266;28;20466;-79
2021/12/31 07:58:15;;;;;;;22.93;15.93;;;;;;;7.10;86.33;95687.59;5077873;28;20443;-79
2021/12/31 08:00:42;;;;;;;26.40;17.97;;;;;;;7.10;86.89;95692.81;5113046;28;20457;-79
2021/12/31 08:03:09;;;;;;;30.27;17.77;;;;;;;7.03;87.16;95693.28;5112957;28;20546;-79
2021/12/31 08:05:38;;;;;;;22.57;15.73;;;;;;;7.09;87.25;95698.97;5077500;28;20442;-79
2021/12/31 08:08:06;;;;;;;26.37;16.83;;;;;;;7.19;86.63;95696.66;5112831;28;20883;-78
2021/12/31 08:10:33;;;;;;;19.87;14.40;;;;;;;7.16;86.70;95699.44;5113235;28;20936;-79
2021/12/31 08:13:01;;;;;;;22.50;15.30;;;;;;;7.27;86.73;95702.28;5060938;28;20458;-78
2021/12/31 08:15:28;;;;;;;30.70;16.17;;;;;;;7.27;85.76;95699.69;5113279;28;20438;-79
2021/12/31 08:17:55;;;;;;;32.90;19.70;;;;;;;7.25;85.74;95701.53;5113304;28;20439;-78
2021/12/31 08:20:23;;;;;;;27.03;17.23;;;;;;;7.27;85.48;95704.91;5113409;28;20446;-78
2021/12/31 08:22:51;;;;;;;19.70;13.07;;;;;;;7.24;85.53;95707.69;5112856;28;20448;-78
2021/12/31 08:25:19;;;;;;;16.03;12.13;;;;;;;7.16;86.55;95704.66;5113388;28;20449;-79
2021/12/31 08:27:46;;;;;;;16.80;12.43;;;;;;;7.20;86.77;95706.16;5113453;28;20445;-78
2021/12/31 08:30:13;;;;;;;18.90;14.50;;;;;;;7.24;86.43;95710.31;5113954;28;20811;-79
2021/12/31 08:32:40;;;;;;;17.40;13.00;;;;;;;7.21;86.21;95710.47;5113735;28;20438;-79
2021/12/31 08:35:08;;;;;;;22.57;15.70;;;;;;;7.15;85.93;95703.00;5113757;28;20452;-78
2021/12/31 08:37:35;;;;;;;17.53;13.40;;;;;;;7.14;86.04;95696.09;5113364;28;20803;-79
2021/12/31 08:40:04;;;;;;;23.47;11.47;;;;;;;6.96;86.01;95695.41;5113773;28;20453;-78
2021/12/31 08:42:31;;;;;;;16.07;11.03;;;;;;;6.98;86.85;95692.72;5113338;28;20430;-78
2021/12/31 08:44:58;;;;;;;17.03;10.87;;;;;;;7.10;87.03;95686.78;5112748;28;20509;-78
2021/12/31 08:47:25;;;;;;;19.97;12.97;;;;;;;7.20;86.75;95687.91;5077421;28;20501;-78
2021/12/31 08:49:52;;;;;;;18.33;12.63;;;;;;;7.20;86.67;95677.47;5113696;28;20644;-79
2021/12/31 08:52:19;;;;;;;17.40;12.03;;;;;;;7.31;86.63;95679.47;5113541;28;20444;-79
2021/12/31 08:54:46;;;;;;;21.83;14.87;;;;;;;7.35;87.12;95676.56;5113618;28;20466;-78
2021/12/31 08:57:14;;;;;;;17.83;11.90;;;;;;;7.25;86.92;95675.44;5113114;28;20449;-79
2021/12/31 08:59:41;;;;;;;17.03;11.83;;;;;;;7.29;86.93;95676.94;5112798;28;20433;-79
2021/12/31 09:02:08;;;;;;;19.57;12.80;;;;;;;7.32;86.67;95671.53;5113057;28;20452;-79
2021/12/31 09:04:35;;;;;;;19.43;13.97;;;;;;;7.41;86.83;95662.31;5060160;28;20565;-78
2021/12/31 09:07:02;;;;;;;24.17;13.37;;;;;;;7.44;86.43;95660.34;5112715;28;20453;-79
2021/12/31 09:09:29;;;;;;;18.87;13.60;;;;;;;7.55;86.65;95656.25;5113185;28;20529;-78
2021/12/31 09:11:56;;;;;;;30.27;20.90;;;;;;;7.70;86.27;95656.16;5112678;28;20780;-79
2021/12/31 09:14:24;;;;;;;26.00;17.30;;;;;;;7.84;85.60;95650.09;5113254;28;20427;-79
2021/12/31 09:16:52;;;;;;;22.73;14.70;;;;;;;7.76;85.62;95649.72;5112262;28;20968;-78
2021/12/31 09:19:18;;;;;;;21.60;14.80;;;;;;;7.89;84.97;95650.66;5112968;28;20439;-79
2021/12/31 09:21:45;;;;;;;20.70;14.00;;;;;;;7.98;84.91;95655.28;5062323;28;20447;-79
2021/12/31 09:24:12;;;;;;;21.03;13.77;;;;;;;8.00;84.41;95652.56;5063208;28;20485;-79
2021/12/31 09:26:39;;;;;;;20.57;14.10;;;;;;;7.96;84.03;95651.09;5116267;28;20449;-80
2021/12/31 09:29:06;;;;;;;19.97;14.17;;;;;;;8.06;83.66;95653.03;5115870;28;20538;-78
2021/12/31 09:31:34;;;;;;;25.00;15.40;;;;;;;8.08;83.44;95650.31;5080186;28;20447;-78
2021/12/31 09:34:01;;;;;;;30.77;13.23;;;;;;;8.06;83.49;95663.47;5063228;28;20454;-79
2021/12/31 09:36:30;;;;;;;16.63;12.40;;;;;;;8.22;83.62;95667.75;5116070;28;20439;-78
2021/12/31 09:38:57;;;;;;;20.30;14.10;;;;;;;8.36;83.09;95662.50;5115667;28;20442;-79
2021/12/31 09:41:24;;;;;;;32.77;14.77;;;;;;;8.27;83.06;95650.00;5115831;28;20959;-79
2021/12/31 09:43:52;;;;;;;20.63;14.33;;;;;;;8.32;82.91;95648.78;5115547;28;20478;-78
2021/12/31 09:46:24;;;;;;;21.37;15.00;;;;;;;8.40;81.82;95650.94;5115732;28;20979;-78
2021/12/31 09:48:53;;;;;;;22.07;15.67;;;;;;;8.42;81.67;95643.84;5117325;28;20458;-79
2021/12/31 09:51:21;;;;;;;20.77;14.33;;;;;;;8.38;82.86;95634.50;5080264;28;20438;-79
2021/12/31 09:53:49;;;;;;;22.70;15.50;;;;;;;8.55;83.01;95631.63;5115502;28;20445;-78
2021/12/31 09:56:15;;;;;;;24.97;16.70;;;;;;;8.73;82.28;95631.38;5115225;28;20467;-78
2021/12/31 09:58:42;;;;;;;22.10;16.13;;;;;;;8.88;81.91;95625.13;5063071;28;20446;-79
2021/12/31 10:01:18;;;;;;;19.37;14.30;;;;;;;9.01;81.43;95620.78;5115667;28;20438;-79
2021/12/31 10:04:19;;;;;;;20.73;13.50;;;;;;;9.09;79.76;95623.69;5115091;28;20482;-78
2021/12/31 10:07:05;;;;;;;23.17;15.00;;;;;;;9.34;79.63;95628.13;5115178;28;20442;-79
2021/12/31 10:09:32;;;;;;;26.60;15.40;;;;;;;9.39;79.43;95620.78;5114948;28;20447;-79
2021/12/31 10:11:59;;;;;;;19.40;14.67;;;;;;;9.49;78.23;95615.75;5079498;28;20446;-80
2021/12/31 10:14:34;;;;;;;22.00;14.67;;;;;;;9.57;78.25;95610.84;5114841;28;20525;-78
2021/12/31 10:17:01;;;;;;;20.40;14.50;;;;;;;9.56;78.27;95601.31;5115363;28;20802;-79
2021/12/31 10:19:30;;;;;;;23.80;15.10;;;;;;;9.56;77.59;95596.91;5062499;28;20477;-78
2021/12/31 10:21:57;;;;;;;18.83;13.80;;;;;;;9.62;77.42;95600.88;5080006;28;20440;-78
2021/12/31 10:24:26;;;;;;;21.53;14.27;;;;;;;9.73;77.68;95603.56;5115996;28;21007;-78
2021/12/31 10:26:53;;;;;;;22.90;14.77;;;;;;;9.75;76.89;95591.19;5115509;28;20530;-79
2021/12/31 10:29:21;;;;;;;20.00;14.37;;;;;;;9.84;76.92;95590.56;5114862;28;20435;-79
2021/12/31 10:31:51;;;;;;;27.97;15.57;;;;;;;9.91;76.64;95594.41;5115087;28;20435;-79
2021/12/31 10:34:30;;;;;;;23.70;14.73;;;;;;;9.89;76.55;95587.59;5114798;28;20866;-79
2021/12/31 10:36:59;;;;;;;20.40;13.50;;;;;;;9.92;76.48;95584.75;5114855;28;20480;-79
2021/12/31 10:39:28;;;;;;;20.33;14.57;;;;;;;9.99;76.14;95580.75;5115045;28;20593;-79
2021/12/31 10:42:04;;;;;;;20.50;14.97;;;;;;;9.92;75.94;95574.28;5114787;28;20472;-79
2021/12/31 10:44:42;;;;;;;23.93;17.10;;;;;;;10.01;76.34;95571.00;5114478;28;20562;-78
2021/12/31 10:47:10;;;;;;;27.77;17.20;;;;;;;10.04;77.23;95564.69;5114724;28;20447;-79
2021/12/31 10:50:16;;;;;;;19.20;14.70;;;;;;;10.11;77.01;95560.66;5114386;28;20536;-79
2021/12/31 10:52:53;;;;;;;20.40;14.07;;;;;;;10.20;77.53;95560.03;5062054;28;20507;-80
2021/12/31 10:55:25;;;;;;;19.10;13.17;;;;;;;10.34;76.36;95557.25;5114287;28;20830;-78
2021/12/31 10:57:54;;;;;;;24.30;14.03;;;;;;;10.39;75.49;95549.88;5114280;28;20439;-78
2021/12/31 11:00:22;;;;;;;24.40;15.00;;;;;;;10.50;75.84;95562.22;5114422;28;20805;-79
2021/12/31 11:02:49;;;;;;;23.37;15.63;;;;;;;10.46;75.56;95556.38;5114231;28;20459;-79
2021/12/31 11:05:20;;;;;;;19.70;15.10;;;;;;;10.58;75.24;95549.38;5114166;28;20480;-79
2021/12/31 11:07:48;;;;;;;24.13;15.07;;;;;;;10.64;75.35;95555.94;5114051;28;20444;-79
2021/12/31 11:10:16;;;;;;;24.43;14.90;;;;;;;10.64;75.86;95553.31;5061981;28;20927;-78
2021/12/31 11:12:47;;;;;;;20.83;13.30;;;;;;;10.66;74.51;95556.66;5114155;28;20526;-79
2021/12/31 11:15:14;;;;;;;23.80;15.63;;;;;;;10.57;75.49;95558.19;5114194;28;20494;-79
2021/12/31 11:17:41;;;;;;;21.73;13.57;;;;;;;10.23;75.85;95551.97;5078635;28;20436;-79
2021/12/31 11:20:10;;;;;;;22.87;14.70;;;;;;;10.05;77.29;95553.25;5061565;28;20437;-79
2021/12/31 11:22:39;;;;;;;20.20;12.80;;;;;;;10.01;78.08;95555.25;5113923;28;20442;-78
2021/12/31 11:25:26;;;;;;;28.27;13.90;;;;;;;10.15;78.48;95547.25;5113920;28;20489;-79
2021/12/31 11:27:55;;;;;;;22.97;15.03;;;;;;;10.22;78.62;95550.28;5114240;28;20534;-78
2021/12/31 11:30:30;;;;;;;27.63;14.00;;;;;;;10.22;78.28;95550.28;5114022;28;20480;-79
2021/12/31 11:33:05;;;;;;;19.87;12.90;;;;;;;10.36;78.89;95555.34;5113874;28;20445;-79